Time;durP1;ratioP1;P1;durP2;ratioP2;P2;SDS_P1;SDS_P2;PMS_P1;PMS_P2;Temp;Humidity;BMP_temperature;BMP_pressure;BME280_temperature;BME280_humidity;BME280_pressure;Samples;Min_cycle;Max_cycle;Signal;HPM_P1;HPM_P2
2023/10/13 00:02:01;;;;;;;16.20;2.60;;;;;;;20.97;49.84;100634.11;105660;1265;73868;-84
2023/10/13 00:04:31;;;;;;;;;;;;;;;21.00;49.88;100636.11;105731;1261;68409;-84
2023/10/13 00:07:02;;;;;;;6.40;2.00;;;;;;;21.00;49.80;100635.38;105842;1261;72779;-84
2023/10/13 00:09:33;;;;;;;9.10;2.60;;;;;;;20.91;50.23;100636.98;105704;1265;60590;-84
2023/10/13 00:12:01;;;;;;;8.50;2.40;;;;;;;20.88;50.38;100642.82;107027;1262;61132;-84
2023/10/13 00:14:34;;;;;;;11.80;2.60;;;;;;;20.83;50.57;100654.98;105813;1264;73802;-84
2023/10/13 00:17:03;;;;;;;11.80;2.70;;;;;;;20.82;50.87;100649.67;106026;1263;68747;-83
2023/10/13 00:19:45;;;;;;;5.30;2.30;;;;;;;20.82;50.93;100642.70;106088;1263;73132;-84
2023/10/13 00:22:15;;;;;;;6.00;2.50;;;;;;;20.82;51.11;100631.44;105806;1263;60520;-84
2023/10/13 00:24:47;;;;;;;7.20;2.30;;;;;;;20.82;51.15;100631.05;105896;1259;60499;-84
2023/10/13 00:27:36;;;;;;;11.90;2.60;;;;;;;20.81;51.19;100630.84;107017;1261;72604;-84
2023/10/13 00:32:51;;;;;;;6.10;2.60;;;;;;;20.74;51.47;100623.46;105846;1266;71416;-84
2023/10/13 00:35:26;;;;;;;7.10;2.60;;;;;;;20.76;51.27;100616.79;105849;1264;60523;-84
2023/10/13 00:38:03;;;;;;;3.90;2.20;;;;;;;20.71;51.29;100617.73;105876;1259;60928;-83
2023/10/13 00:45:57;;;;;;;6.10;2.40;;;;;;;20.52;52.16;100621.24;105701;1265;71189;-84
2023/10/13 00:48:33;;;;;;;11.00;3.40;;;;;;;20.47;52.31;100627.58;105794;1263;60712;-83
2023/10/13 00:51:12;;;;;;;11.80;2.70;;;;;;;20.45;52.61;100631.61;105683;1259;60434;-84
2023/10/13 00:53:41;;;;;;;10.40;2.90;;;;;;;20.39;53.02;100637.98;106700;1264;73859;-84
2023/10/13 00:56:27;;;;;;;9.40;2.50;;;;;;;20.38;53.19;100639.09;105784;1264;67115;-83
2023/10/13 00:58:57;;;;;;;6.60;2.40;;;;;;;20.41;53.01;100632.27;105676;1264;72648;-84
2023/10/13 01:01:32;;;;;;;10.20;3.00;;;;;;;20.45;53.14;100634.16;105847;1264;60538;-84
2023/10/13 01:04:08;;;;;;;8.70;2.60;;;;;;;20.44;53.17;100634.92;105666;1259;60559;-84
2023/10/13 01:06:37;;;;;;;4.70;2.70;;;;;;;20.44;53.24;100620.39;107015;1264;73876;-84
2023/10/13 01:09:18;;;;;;;5.90;2.90;;;;;;;20.41;53.24;100618.88;105824;1259;68406;-84
2023/10/13 01:11:51;;;;;;;8.10;2.90;;;;;;;20.38;53.45;100619.70;105981;1261;72673;-84
2023/10/13 01:14:21;;;;;;;7.10;2.90;;;;;;;20.36;53.40;100613.80;105748;1265;60534;-84
2023/10/13 01:16:52;;;;;;;9.30;2.80;;;;;;;20.36;53.49;100618.15;105803;1261;60641;-84
2023/10/13 01:19:24;;;;;;;10.50;3.80;;;;;;;20.32;53.64;100617.53;106693;1265;72852;-84
2023/10/13 01:22:03;;;;;;;5.60;2.80;;;;;;;20.28;53.83;100625.87;105797;1265;67140;-83
2023/10/13 01:24:34;;;;;;;11.80;2.90;;;;;;;20.33;53.82;100643.70;105952;1265;71385;-84
2023/10/13 01:27:17;;;;;;;8.20;3.40;;;;;;;20.33;53.98;100646.34;105784;1266;60545;-84
2023/10/13 01:29:50;;;;;;;6.30;2.80;;;;;;;20.26;54.14;100650.34;105868;1261;60466;-84
2023/10/13 01:32:18;;;;;;;;;;;;;;;20.27;54.25;100658.00;107179;1260;71614;-84
2023/10/13 01:34:47;;;;;;;8.00;3.30;;;;;;;20.28;54.18;100655.58;105805;1265;68061;-84
2023/10/13 01:37:16;;;;;;;8.30;3.10;;;;;;;20.26;54.19;100654.87;105749;1263;71700;-84
2023/10/13 01:39:47;;;;;;;5.90;2.80;;;;;;;20.23;54.56;100656.96;105775;1262;60522;-83
2023/10/13 01:42:21;;;;;;;6.30;3.00;;;;;;;20.24;54.56;100657.89;105772;1264;60385;-83
2023/10/13 01:44:50;;;;;;;8.60;2.60;;;;;;;20.19;54.66;100658.45;106431;1260;73780;-84
2023/10/13 01:47:18;;;;;;;9.00;4.30;;;;;;;20.20;54.82;100658.15;106223;1264;67105;-84
2023/10/13 01:49:50;;;;;;;12.60;3.70;;;;;;;20.17;54.67;100657.33;105692;1259;72645;-84
2023/10/13 01:52:19;;;;;;;9.00;3.30;;;;;;;20.11;55.15;100667.64;105797;1264;60573;-83
2023/10/13 01:54:48;;;;;;;7.50;3.90;;;;;;;19.98;55.92;100672.30;105865;1259;60581;-83
2023/10/13 01:57:17;;;;;;;9.40;4.70;;;;;;;19.96;56.09;100671.92;105891;1265;73940;-84
2023/10/13 01:59:47;;;;;;;9.50;3.10;;;;;;;19.96;56.26;100671.92;106170;1267;67129;-84
2023/10/13 02:02:26;;;;;;;12.20;3.60;;;;;;;20.04;56.19;100676.81;105771;1260;72699;-84
2023/10/13 02:05:00;;;;;;;9.40;3.30;;;;;;;20.06;55.91;100681.58;105786;1265;60509;-84
2023/10/13 02:07:34;;;;;;;9.00;2.70;;;;;;;20.09;55.86;100690.63;106038;1265;60549;-84
2023/10/13 02:10:06;;;;;;;8.00;3.20;;;;;;;20.10;55.80;100689.41;105974;1264;72674;-83
2023/10/13 02:12:42;;;;;;;7.80;3.10;;;;;;;20.16;55.29;100685.83;106034;1260;68965;-84
2023/10/13 02:15:22;;;;;;;6.10;3.40;;;;;;;20.05;55.68;100690.09;106186;1264;71389;-83
2023/10/13 02:17:51;;;;;;;11.80;3.20;;;;;;;20.02;55.95;100695.75;105565;1260;60450;-83
2023/10/13 02:20:23;;;;;;;12.20;3.30;;;;;;;20.07;55.62;100714.23;105767;1264;60380;-83
2023/10/13 02:22:51;;;;;;;10.00;3.90;;;;;;;20.09;55.51;100728.05;105704;1264;73781;-83
2023/10/13 02:28:13;;;;;;;10.70;3.40;;;;;;;20.11;58.22;100734.46;106065;1266;71463;-83
2023/10/13 02:30:45;;;;;;;6.40;2.90;;;;;;;20.21;58.03;100732.60;106009;1264;60664;-84
2023/10/13 02:33:13;;;;;;;6.60;3.70;;;;;;;20.18;58.20;100702.71;105795;1264;60623;-83
2023/10/13 02:35:42;;;;;;;12.40;3.70;;;;;;;20.14;58.67;100710.89;105729;1274;73827;-83
2023/10/13 02:38:13;;;;;;;11.40;3.50;;;;;;;20.06;59.17;100714.45;106862;1262;68191;-84
2023/10/13 02:40:41;;;;;;;13.60;4.60;;;;;;;19.99;62.81;100686.38;105719;1260;71466;-84
2023/10/13 02:43:10;;;;;;;12.00;3.80;;;;;;;19.94;69.31;100684.71;105766;1261;60434;-82
2023/10/13 02:45:38;;;;;;;7.40;3.60;;;;;;;19.86;74.66;100678.86;105861;1260;60354;-83
2023/10/13 02:48:18;;;;;;;11.60;4.30;;;;;;;19.73;78.58;100669.66;106490;1261;73869;-85
2023/10/13 02:50:46;;;;;;;9.20;3.80;;;;;;;19.58;82.38;100669.69;105683;1260;67256;-84
2023/10/13 02:53:14;;;;;;;11.70;3.20;;;;;;;19.41;85.32;100682.84;105737;1264;71768;-82
2023/10/13 02:56:05;;;;;;;7.80;3.50;;;;;;;19.20;87.77;100677.23;105907;1264;60475;-82
2023/10/13 02:58:43;;;;;;;11.30;3.60;;;;;;;19.11;91.67;100680.35;105630;1264;60452;-82
2023/10/13 03:01:17;;;;;;;7.90;3.40;;;;;;;19.02;94.24;100684.23;106735;1258;72586;-84
2023/10/13 03:03:50;;;;;;;12.40;4.00;;;;;;;18.82;96.67;100693.17;105704;1267;67487;-84
2023/10/13 03:06:21;;;;;;;6.70;3.30;;;;;;;18.70;98.97;100684.82;105861;1263;72011;-82
2023/10/13 03:08:50;;;;;;;8.50;3.60;;;;;;;18.63;100.00;100697.33;105753;1265;60573;-82
2023/10/13 03:11:24;;;;;;;14.50;5.50;;;;;;;18.53;100.00;100713.23;105785;1261;60512;-82
2023/10/13 03:13:52;;;;;;;12.90;6.50;;;;;;;18.33;100.00;100720.23;106354;1261;73865;-84
2023/10/13 03:16:20;;;;;;;10.20;4.40;;;;;;;18.25;100.00;100718.04;105811;1263;67143;-84
2023/10/13 03:18:53;;;;;;;9.60;4.10;;;;;;;18.22;100.00;100723.21;105853;1261;73025;-84
2023/10/13 03:21:31;;;;;;;16.50;4.40;;;;;;;18.16;100.00;100720.02;105877;1264;60528;-82
2023/10/13 03:24:04;;;;;;;9.80;4.30;;;;;;;18.16;100.00;100722.23;106419;1259;60463;-84
2023/10/13 03:26:36;;;;;;;9.50;4.90;;;;;;;18.14;100.00;100719.70;106187;1264;73959;-83
2023/10/13 03:29:08;;;;;;;10.60;4.10;;;;;;;18.12;100.00;100722.41;105814;1260;67288;-84
2023/10/13 03:31:37;;;;;;;7.60;3.80;;;;;;;18.08;100.00;100720.59;105639;1262;71978;-84
2023/10/13 03:34:09;;;;;;;9.10;4.00;;;;;;;18.10;100.00;100717.34;105851;1261;60567;-82
2023/10/13 03:36:56;;;;;;;7.20;3.60;;;;;;;18.11;100.00;100725.28;106599;1261;60479;-85
2023/10/13 03:39:29;;;;;;;6.50;3.50;;;;;;;18.13;100.00;100734.34;105822;1260;72941;-85
2023/10/13 03:41:57;;;;;;;12.20;4.30;;;;;;;18.15;100.00;100742.08;105860;1260;68385;-85
2023/10/13 03:44:30;;;;;;;10.50;4.20;;;;;;;18.15;100.00;100748.16;105850;1264;71160;-82
2023/10/13 03:47:12;;;;;;;7.50;4.20;;;;;;;18.11;100.00;100748.16;105736;1261;61992;-85
2023/10/13 03:49:51;;;;;;;9.40;3.90;;;;;;;17.98;100.00;100751.31;106418;1264;60574;-85
2023/10/13 03:52:22;;;;;;;12.30;4.50;;;;;;;17.91;100.00;100752.02;105736;1264;72677;-81
2023/10/13 03:54:51;;;;;;;8.00;3.90;;;;;;;17.86;100.00;100755.19;105815;1261;68405;-82
2023/10/13 03:57:19;;;;;;;13.20;4.80;;;;;;;17.84;100.00;100756.26;105815;1260;72703;-84
2023/10/13 03:59:48;;;;;;;7.10;3.80;;;;;;;17.78;100.00;100751.34;105820;1261;60527;-81
2023/10/13 04:02:18;;;;;;;12.40;4.20;;;;;;;17.73;100.00;100753.55;106510;1260;60477;-84
2023/10/13 04:04:49;;;;;;;10.90;4.10;;;;;;;17.71;100.00;100753.23;105793;1267;72246;-84
2023/10/13 04:10:46;;;;;;;9.40;4.20;;;;;;;17.68;100.00;100750.52;105778;1264;71415;-84
2023/10/13 04:15:36;;;;;;;6.60;4.00;;;;;;;17.72;100.00;100750.96;105764;1260;60380;-81
2023/10/13 04:18:14;;;;;;;10.60;4.00;;;;;;;17.78;100.00;100755.42;105738;1260;73913;-81
2023/10/13 04:20:46;;;;;;;13.40;4.10;;;;;;;17.79;100.00;100762.01;105749;1264;68465;-84
2023/10/13 04:23:25;;;;;;;7.70;3.80;;;;;;;17.81;100.00;100767.48;105753;1263;71459;-81
2023/10/13 04:26:07;;;;;;;11.30;4.00;;;;;;;17.78;100.00;100770.71;106359;1264;60538;-81
2023/10/13 04:28:37;;;;;;;7.80;4.60;;;;;;;17.73;100.00;100775.66;105825;1260;60505;-82
2023/10/13 04:31:11;;;;;;;8.80;4.40;;;;;;;17.59;100.00;100775.32;105999;1260;75045;-82
2023/10/13 04:33:56;;;;;;;8.50;4.90;;;;;;;17.64;100.00;100779.89;105856;1264;68451;-81
2023/10/13 04:44:48;;;;;;;12.00;4.30;;;;;;;17.78;100.00;100810.69;105704;1260;73908;-84
2023/10/13 04:57:34;;;;;;;8.80;4.70;;;;;;;17.56;100.00;100813.54;105920;1264;73787;-85
2023/10/13 05:47:12;;;;;;;10.40;4.80;;;;;;;18.34;100.00;100872.77;105798;1260;60546;-81
2023/10/13 05:49:50;;;;;;;11.90;4.80;;;;;;;18.35;100.00;100874.30;105881;1264;60442;-84
2023/10/13 06:28:41;;;;;;;12.10;5.80;;;;;;;18.70;100.00;100911.07;105921;1264;60510;-85
2023/10/13 06:31:34;;;;;;;9.90;5.40;;;;;;;18.74;100.00;100907.47;106675;1259;60555;-85
2023/10/13 06:33:58;;;;;;;11.30;5.80;;;;;;;18.81;100.00;100907.44;105908;1259;73915;-85
2023/10/13 06:36:26;;;;;;;9.30;5.40;;;;;;;18.94;100.00;100906.60;105872;1264;68749;-85
2023/10/13 06:39:34;;;;;;;12.40;5.80;;;;;;;19.11;100.00;100905.41;106017;1261;71518;-85
2023/10/13 06:41:45;;;;;;;16.30;7.00;;;;;;;19.26;100.00;100908.16;105807;1259;60607;-86
2023/10/13 06:44:16;;;;;;;12.80;5.40;;;;;;;19.37;100.00;100917.34;106357;1262;60376;-86
2023/10/13 06:46:44;;;;;;;11.10;6.10;;;;;;;19.44;100.00;100919.22;105857;1263;73853;-86
2023/10/13 06:49:13;;;;;;;10.80;5.90;;;;;;;19.59;100.00;100922.11;105869;1260;68339;-86
2023/10/13 06:51:42;;;;;;;13.90;6.50;;;;;;;19.75;100.00;100923.61;105933;1260;72697;-86
2023/10/13 06:54:20;;;;;;;10.40;6.00;;;;;;;19.86;100.00;100924.95;106264;1260;60411;-85
2023/10/13 06:56:52;;;;;;;13.40;6.20;;;;;;;19.94;100.00;100928.94;105938;1263;60502;-86
2023/10/13 06:59:26;;;;;;;12.60;5.80;;;;;;;20.01;100.00;100934.30;105946;1263;73930;-86
2023/10/13 07:02:01;;;;;;;14.40;6.10;;;;;;;20.06;100.00;100934.54;105934;1260;68605;-86
2023/10/13 07:04:48;;;;;;;13.00;6.00;;;;;;;20.16;100.00;100933.30;105809;1264;71469;-86
2023/10/13 07:07:16;;;;;;;11.50;6.20;;;;;;;20.26;100.00;100932.21;106721;1259;60527;-86
2023/10/13 07:09:55;;;;;;;8.70;6.00;;;;;;;20.31;100.00;100939.92;105788;1260;60642;-86
2023/10/13 07:12:26;;;;;;;11.10;6.30;;;;;;;20.30;100.00;100941.23;105865;1259;73780;-87
2023/10/13 07:15:10;;;;;;;12.80;6.60;;;;;;;20.37;100.00;100939.70;106004;1259;67130;-85
2023/10/13 07:17:40;;;;;;;10.80;7.20;;;;;;;20.48;100.00;100937.68;105830;1259;72635;-86
2023/10/13 07:20:15;;;;;;;12.90;6.80;;;;;;;20.59;100.00;100931.03;106372;1260;60449;-86
2023/10/13 07:22:57;;;;;;;13.10;7.40;;;;;;;20.72;100.00;100933.52;105921;1259;60344;-86
2023/10/13 07:25:26;;;;;;;13.60;8.00;;;;;;;20.77;100.00;100939.90;105931;1264;73851;-86
2023/10/13 07:27:56;;;;;;;12.10;7.00;;;;;;;20.78;100.00;100934.95;105917;1259;68750;-86
2023/10/13 07:30:30;;;;;;;13.30;7.70;;;;;;;20.77;100.00;100936.34;105865;1259;72694;-86
2023/10/13 07:32:59;;;;;;;15.50;8.80;;;;;;;20.88;100.00;100932.55;105962;1261;62017;-86
2023/10/13 07:35:30;;;;;;;17.50;9.00;;;;;;;21.07;100.00;100936.63;107037;1261;60134;-85
2023/10/13 07:38:00;;;;;;;16.90;9.20;;;;;;;21.25;100.00;100933.50;106008;1260;72652;-85
2023/10/13 07:43:08;;;;;;;18.10;10.30;;;;;;;21.41;100.00;100939.11;105980;1263;72457;-85
2023/10/13 18:45:34;;;;;;;14.10;9.50;;;;;;;15.69;100.00;101160.18;106631;1263;67304;-82
2023/10/13 18:48:04;;;;;;;12.30;8.90;;;;;;;15.67;100.00;101163.83;106086;1261;73188;-82
2023/10/13 18:50:32;;;;;;;11.20;9.00;;;;;;;15.58;100.00;101164.34;105786;1269;61232;-82
2023/10/13 18:53:00;;;;;;;13.20;8.60;;;;;;;15.49;100.00;101165.67;106258;1260;61165;-82
2023/10/13 18:55:28;;;;;;;13.10;9.30;;;;;;;15.44;100.00;101168.77;105899;1264;75175;-83
2023/10/13 18:57:56;;;;;;;11.30;8.60;;;;;;;15.37;100.00;101172.98;106522;1261;70798;-82
2023/10/13 19:00:24;;;;;;;14.00;9.10;;;;;;;15.29;100.00;101172.23;106016;1259;73656;-82
2023/10/13 19:02:51;;;;;;;13.30;9.50;;;;;;;15.21;100.00;101176.17;105897;1261;61191;-82
2023/10/13 19:05:20;;;;;;;13.20;9.30;;;;;;;15.11;100.00;101174.54;105846;1265;62305;-82
2023/10/13 19:07:50;;;;;;;14.50;9.30;;;;;;;15.05;100.00;101174.99;105947;1261;75125;-82
2023/10/13 19:10:18;;;;;;;11.00;8.40;;;;;;;14.98;100.00;101169.84;107018;1263;66634;-83
2023/10/13 19:12:50;;;;;;;10.00;8.10;;;;;;;14.95;100.00;101168.13;105950;1265;71532;-82
2023/10/13 19:15:18;;;;;;;11.50;8.80;;;;;;;14.89;100.00;101164.49;105961;1264;61392;-82
2023/10/13 19:17:46;;;;;;;11.90;8.90;;;;;;;14.83;100.00;101161.96;105948;1260;61359;-82
2023/10/13 19:20:17;;;;;;;12.30;8.40;;;;;;;14.80;100.00;101164.36;106017;1261;76669;-82
2023/10/13 19:22:52;;;;;;;11.30;8.10;;;;;;;14.73;100.00;101160.69;106022;1265;69817;-82
2023/10/13 19:25:24;;;;;;;11.50;8.40;;;;;;;14.69;100.00;101159.23;106769;1260;72403;-83
2023/10/13 19:27:53;;;;;;;11.40;8.60;;;;;;;14.69;100.00;101155.73;105835;1260;62817;-83
2023/10/13 19:30:21;;;;;;;10.10;8.20;;;;;;;14.68;100.00;101154.34;106122;1262;62648;-83
2023/10/13 19:32:50;;;;;;;12.50;8.70;;;;;;;14.68;100.00;101151.77;105974;1265;74460;-83
2023/10/13 19:35:20;;;;;;;10.50;7.60;;;;;;;14.63;100.00;101154.29;106078;1262;68698;-84
2023/10/13 19:37:49;;;;;;;10.80;7.70;;;;;;;14.61;100.00;101152.27;105973;1264;74598;-84
2023/10/13 19:40:17;;;;;;;14.00;8.20;;;;;;;14.62;100.00;101154.45;106914;1265;63777;-84
2023/10/13 19:42:45;;;;;;;12.30;8.10;;;;;;;14.58;100.00;101161.52;106018;1265;61127;-84
2023/10/13 19:45:13;;;;;;;10.70;7.60;;;;;;;14.56;100.00;101156.86;105966;1261;74735;-84
2023/10/13 19:47:41;;;;;;;12.40;8.30;;;;;;;14.50;100.00;101156.95;105848;1265;67173;-83
2023/10/13 19:50:12;;;;;;;13.70;7.00;;;;;;;14.40;100.00;101158.58;105894;1265;73020;-83
2023/10/13 19:52:41;;;;;;;11.30;7.60;;;;;;;14.34;100.00;101159.23;106324;1264;61127;-84
2023/10/13 19:55:15;;;;;;;12.80;7.60;;;;;;;14.28;100.00;101160.54;105934;1265;61180;-84
2023/10/13 19:57:44;;;;;;;9.60;7.20;;;;;;;14.26;100.00;101162.59;105917;1265;73851;-84
2023/10/13 20:00:20;;;;;;;11.40;8.30;;;;;;;14.18;100.00;101156.98;105810;1265;67274;-84
2023/10/13 20:02:53;;;;;;;16.40;8.90;;;;;;;14.11;100.00;101156.60;106338;1261;72848;-84
2023/10/13 20:05:21;;;;;;;10.70;7.30;;;;;;;14.04;100.00;101157.27;105735;1265;61238;-84
2023/10/13 20:07:49;;;;;;;12.10;7.70;;;;;;;13.98;100.00;101154.23;105914;1265;61265;-84
2023/10/13 20:10:17;;;;;;;9.50;7.10;;;;;;;13.86;100.00;101159.58;105972;1260;74658;-82
2023/10/13 20:12:44;;;;;;;10.10;7.40;;;;;;;13.78;100.00;101161.93;105820;1265;68993;-83
2023/10/13 20:15:16;;;;;;;11.50;7.50;;;;;;;13.73;100.00;101157.23;106983;1260;72694;-82
2023/10/13 20:17:44;;;;;;;11.60;7.30;;;;;;;13.71;100.00;101160.98;105805;1265;61501;-83
2023/10/13 20:20:16;;;;;;;10.10;6.90;;;;;;;13.69;100.00;101161.77;105799;1263;61356;-83
2023/10/13 20:22:44;;;;;;;6.80;5.90;;;;;;;13.65;100.00;101160.35;105821;1264;74598;-83
2023/10/13 20:25:14;;;;;;;8.60;6.40;;;;;;;13.59;100.00;101161.70;105831;1265;67828;-83
2023/10/13 20:27:42;;;;;;;9.90;7.00;;;;;;;13.62;100.00;101163.78;106749;1265;72754;-83
2023/10/13 20:30:11;;;;;;;12.10;8.80;;;;;;;13.59;100.00;101161.86;105796;1264;61422;-83
2023/10/13 20:32:39;;;;;;;11.80;8.70;;;;;;;13.58;100.00;101162.97;105670;1262;61405;-83
2023/10/13 20:35:07;;;;;;;11.40;8.50;;;;;;;13.59;100.00;101161.20;105821;1266;74692;-83
2023/10/13 20:37:35;;;;;;;9.70;7.40;;;;;;;13.52;100.00;101162.83;105757;1260;67094;-83
2023/10/13 20:40:17;;;;;;;14.40;8.80;;;;;;;13.44;100.00;101165.78;106508;1259;72769;-84
2023/10/13 20:42:50;;;;;;;10.70;8.20;;;;;;;13.33;100.00;101163.84;105833;1260;61308;-83
2023/10/13 20:45:21;;;;;;;13.70;9.50;;;;;;;13.20;100.00;101168.03;105692;1265;61379;-83
2023/10/13 20:47:50;;;;;;;11.90;8.50;;;;;;;13.16;100.00;101172.27;105784;1261;73657;-83
2023/10/13 20:50:22;;;;;;;9.90;7.20;;;;;;;13.12;100.00;101174.10;105942;1265;67676;-82
2023/10/13 20:52:49;;;;;;;14.90;9.90;;;;;;;13.07;100.00;101176.36;106351;1263;72730;-84
2023/10/13 20:55:18;;;;;;;16.40;10.60;;;;;;;13.03;100.00;101172.47;105826;1260;61658;-84
2023/10/13 20:57:55;;;;;;;12.40;8.40;;;;;;;13.25;100.00;101166.94;105814;1259;61269;-83
2023/10/13 21:00:23;;;;;;;16.40;10.80;;;;;;;13.23;100.00;101166.65;106168;1260;74648;-83
2023/10/13 21:02:53;;;;;;;11.40;8.50;;;;;;;13.13;100.00;101158.18;105836;1261;68684;-83
2023/10/13 21:05:21;;;;;;;14.10;8.40;;;;;;;13.11;100.00;101154.61;107159;1260;71493;-83
2023/10/13 21:07:51;;;;;;;10.80;8.00;;;;;;;13.04;100.00;101150.30;105861;1263;61683;-83
2023/10/13 21:10:19;;;;;;;12.80;7.70;;;;;;;12.93;100.00;101153.95;105887;1265;61154;-83
2023/10/13 21:12:48;;;;;;;13.60;8.50;;;;;;;12.92;100.00;101151.10;105793;1259;74319;-83
2023/10/13 21:15:16;;;;;;;11.60;8.20;;;;;;;12.83;100.00;101146.35;106429;1261;68574;-83
2023/10/13 21:17:45;;;;;;;11.90;9.20;;;;;;;12.67;100.00;101148.08;105941;1266;71445;-83
2023/10/13 21:20:19;;;;;;;11.70;8.80;;;;;;;12.69;100.00;101149.83;105633;1266;61666;-84
2023/10/13 21:22:50;;;;;;;12.10;8.80;;;;;;;12.62;100.00;101145.55;105776;1261;61272;-83
2023/10/13 21:25:26;;;;;;;10.10;8.00;;;;;;;12.55;100.00;101140.13;105840;1261;74549;-83
2023/10/13 21:27:56;;;;;;;14.00;9.50;;;;;;;12.55;100.00;101136.67;106521;1263;69024;-84
2023/10/13 21:30:24;;;;;;;13.90;9.60;;;;;;;12.52;100.00;101137.02;105848;1264;72685;-83
2023/10/13 21:32:53;;;;;;;14.40;9.50;;;;;;;12.43;100.00;101133.35;105785;1265;61340;-83
2023/10/13 21:35:21;;;;;;;16.60;11.20;;;;;;;12.39;100.00;101140.09;105957;1264;61257;-83
2023/10/13 21:37:48;;;;;;;15.90;9.10;;;;;;;12.38;100.00;101131.92;105733;1267;74708;-84
2023/10/13 21:40:19;;;;;;;13.80;9.50;;;;;;;12.35;100.00;101133.52;105950;1261;68489;-84
2023/10/13 21:42:47;;;;;;;13.70;10.00;;;;;;;12.22;100.00;101134.89;107900;1260;73004;-84
2023/10/13 21:45:15;;;;;;;16.80;11.60;;;;;;;12.24;100.00;101135.66;105780;1261;61299;-85
2023/10/13 21:47:44;;;;;;;18.60;10.90;;;;;;;12.24;100.00;101137.25;105666;1265;61238;-83
2023/10/13 21:50:20;;;;;;;16.10;10.80;;;;;;;12.21;100.00;101140.53;105685;1265;74586;-85
2023/10/13 21:52:48;;;;;;;15.20;10.30;;;;;;;12.21;100.00;101149.35;105830;1266;66933;-82
2023/10/13 21:55:16;;;;;;;15.50;10.30;;;;;;;12.20;100.00;101151.42;106504;1260;72660;-85
2023/10/13 21:57:49;;;;;;;19.30;11.60;;;;;;;12.13;100.00;101155.60;105999;1266;61438;-83
2023/10/13 22:03:03;;;;;;;19.30;12.60;;;;;;;12.07;100.00;101150.55;105714;1266;74634;-83
2023/10/13 22:05:31;;;;;;;17.70;10.50;;;;;;;12.00;100.00;101149.39;105810;1264;67230;-83
2023/10/13 22:08:00;;;;;;;14.10;10.40;;;;;;;11.92;100.00;101147.19;105660;1261;71403;-85
2023/10/13 22:10:28;;;;;;;15.20;8.80;;;;;;;11.85;100.00;101147.88;106580;1263;61363;-84
2023/10/13 22:12:56;;;;;;;16.70;10.60;;;;;;;11.77;100.00;101151.83;105826;1263;61519;-86
2023/10/13 22:15:25;;;;;;;15.80;10.90;;;;;;;11.75;100.00;101155.61;105812;1263;74648;-83
2023/10/13 22:17:52;;;;;;;16.50;10.90;;;;;;;11.82;100.00;101156.83;105803;1264;68515;-85
2023/10/13 22:20:23;;;;;;;16.50;10.70;;;;;;;11.77;100.00;101155.83;105763;1260;72688;-85
2023/10/13 22:22:51;;;;;;;16.60;10.80;;;;;;;11.68;100.00;101159.92;105826;1263;61367;-85
2023/10/13 22:25:19;;;;;;;15.70;10.00;;;;;;;11.66;100.00;101160.52;106071;1260;61365;-83
2023/10/13 22:27:47;;;;;;;18.90;11.70;;;;;;;11.60;100.00;101158.14;105745;1264;74697;-83
2023/10/13 22:30:18;;;;;;;13.70;10.20;;;;;;;11.57;100.00;101158.52;105809;1261;68387;-85
2023/10/13 22:32:48;;;;;;;14.50;10.20;;;;;;;11.65;100.00;101152.02;105882;1260;71675;-83
2023/10/13 22:35:19;;;;;;;13.50;10.00;;;;;;;11.55;100.00;101160.20;105815;1267;61322;-83
2023/10/13 22:37:51;;;;;;;16.30;9.50;;;;;;;11.44;100.00;101167.39;106363;1259;61511;-85
2023/10/13 22:40:20;;;;;;;16.30;10.70;;;;;;;11.38;100.00;101166.71;105674;1264;74751;-83
2023/10/13 22:42:49;;;;;;;17.00;10.80;;;;;;;11.40;100.00;101165.84;105849;1262;68599;-83
2023/10/13 22:45:17;;;;;;;17.50;11.60;;;;;;;11.40;100.00;101160.10;105876;1261;71412;-86
2023/10/13 22:47:49;;;;;;;18.00;10.50;;;;;;;11.33;100.00;101152.99;105806;1261;61179;-83
2023/10/13 22:50:26;;;;;;;15.00;10.30;;;;;;;11.31;100.00;101155.62;106257;1261;61091;-85
2023/10/13 22:53:00;;;;;;;14.80;10.40;;;;;;;11.24;100.00;101158.44;105600;1263;74849;-83
2023/10/13 22:55:28;;;;;;;12.70;8.80;;;;;;;11.15;100.00;101156.95;105662;1264;67101;-85
2023/10/13 22:57:56;;;;;;;16.20;10.00;;;;;;;11.13;100.00;101164.61;105787;1261;72450;-83
2023/10/13 23:00:43;;;;;;;15.20;10.60;;;;;;;11.10;100.00;101166.20;105808;1264;61182;-83
2023/10/13 23:03:15;;;;;;;15.40;10.40;;;;;;;11.07;100.00;101159.55;107439;1259;60387;-86
2023/10/13 23:05:51;;;;;;;16.10;9.50;;;;;;;11.03;100.00;101158.22;105764;1260;74429;-86
2023/10/13 23:08:34;;;;;;;15.80;10.80;;;;;;;10.95;100.00;101160.58;105831;1261;68488;-86
2023/10/13 23:11:14;;;;;;;14.00;9.90;;;;;;;10.91;100.00;101155.80;105845;1261;72580;-86
2023/10/13 23:13:50;;;;;;;15.90;10.00;;;;;;;10.86;100.00;101158.93;105831;1261;61365;-85
2023/10/13 23:16:21;;;;;;;16.70;10.40;;;;;;;10.81;100.00;101160.27;106464;1259;61135;-86
2023/10/13 23:18:51;;;;;;;15.40;10.00;;;;;;;10.76;100.00;101151.98;106008;1264;73413;-83
2023/10/13 23:21:19;;;;;;;13.50;9.10;;;;;;;10.73;100.00;101153.02;105887;1261;68355;-83
2023/10/13 23:23:53;;;;;;;17.70;9.80;;;;;;;10.65;100.00;101148.26;105740;1264;72717;-86
2023/10/13 23:26:25;;;;;;;14.80;10.00;;;;;;;10.54;100.00;101150.02;105848;1261;61778;-85
2023/10/13 23:28:54;;;;;;;17.80;10.20;;;;;;;10.43;100.00;101155.35;105856;1263;61277;-86
2023/10/13 23:31:23;;;;;;;14.40;9.60;;;;;;;10.39;100.00;101156.80;106691;1259;74737;-83
2023/10/13 23:33:54;;;;;;;15.20;10.20;;;;;;;10.32;100.00;101163.40;105791;1263;67650;-83
2023/10/13 23:36:23;;;;;;;14.30;9.40;;;;;;;10.32;100.00;101160.78;105566;1260;204577;-83
2023/10/13 23:38:59;;;;;;;15.40;9.90;;;;;;;10.24;100.00;101165.61;105726;1259;61360;-83
2023/10/13 23:41:27;;;;;;;13.90;9.40;;;;;;;10.14;100.00;101171.02;105891;1260;61237;-83
2023/10/13 23:43:58;;;;;;;15.60;9.50;;;;;;;10.08;100.00;101175.90;107186;1259;74911;-84
2023/10/13 23:46:34;;;;;;;14.70;9.60;;;;;;;10.07;100.00;101173.04;105813;1260;67204;-85
2023/10/13 23:49:03;;;;;;;13.00;9.50;;;;;;;10.06;100.00;101171.39;105995;1261;72676;-83
2023/10/13 23:51:32;;;;;;;12.30;8.50;;;;;;;10.08;100.00;101166.39;105805;1260;61372;-86
2023/10/13 23:54:16;;;;;;;15.80;10.40;;;;;;;10.09;100.00;101161.31;105788;1259;61254;-83
2023/10/13 23:56:48;;;;;;;14.40;9.70;;;;;;;10.14;100.00;101158.89;106606;1263;74714;-86
2023/10/13 23:59:26;;;;;;;15.10;9.60;;;;;;;10.14;100.00;101164.91;105829;1260;68454;-86
